sensor_id;sensor_type;location;lat;lon;timestamp;P1;durP1;ratioP1;P2;durP2;ratioP2
25437;SDS011;13364;49.084;9.978;2023-04-03T00:00:26;3.40;;;2.53;;
25437;SDS011;13364;49.084;9.978;2023-04-03T00:02:53;3.97;;;2.53;;
25437;SDS011;13364;49.084;9.978;2023-04-03T00:05:20;3.38;;;2.72;;
25437;SDS011;13364;49.084;9.978;2023-04-03T00:07:48;5.05;;;2.97;;
25437;SDS011;13364;49.084;9.978;2023-04-03T00:10:16;3.95;;;2.83;;
25437;SDS011;13364;49.084;9.978;2023-04-03T00:12:43;5.32;;;3.05;;
25437;SDS011;13364;49.084;9.978;2023-04-03T00:15:10;7.35;;;3.22;;
25437;SDS011;13364;49.084;9.978;2023-04-03T00:17:37;5.75;;;2.85;;
25437;SDS011;13364;49.084;9.978;2023-04-03T00:20:05;3.55;;;2.72;;
25437;SDS011;13364;49.084;9.978;2023-04-03T00:22:32;4.30;;;3.05;;
25437;SDS011;13364;49.084;9.978;2023-04-03T00:24:59;3.00;;;2.50;;
25437;SDS011;13364;49.084;9.978;2023-04-03T00:27:26;3.40;;;2.67;;
25437;SDS011;13364;49.084;9.978;2023-04-03T00:29:53;3.88;;;2.80;;
25437;SDS011;13364;49.084;9.978;2023-04-03T00:32:20;5.13;;;2.90;;
25437;SDS011;13364;49.084;9.978;2023-04-03T00:34:48;5.97;;;2.72;;
25437;SDS011;13364;49.084;9.978;2023-04-03T00:37:15;3.67;;;2.60;;
25437;SDS011;13364;49.084;9.978;2023-04-03T00:39:42;3.50;;;2.75;;
25437;SDS011;13364;49.084;9.978;2023-04-03T00:42:09;3.38;;;2.92;;
25437;SDS011;13364;49.084;9.978;2023-04-03T00:47:05;5.53;;;2.55;;
25437;SDS011;13364;49.084;9.978;2023-04-03T00:49:35;4.40;;;2.72;;
25437;SDS011;13364;49.084;9.978;2023-04-03T00:52:03;3.72;;;2.60;;
25437;SDS011;13364;49.084;9.978;2023-04-03T00:54:36;5.63;;;3.15;;
25437;SDS011;13364;49.084;9.978;2023-04-03T00:57:04;5.22;;;3.38;;
25437;SDS011;13364;49.084;9.978;2023-04-03T00:59:34;4.18;;;1.92;;
25437;SDS011;13364;49.084;9.978;2023-04-03T01:02:05;3.22;;;2.42;;
25437;SDS011;13364;49.084;9.978;2023-04-03T01:04:34;4.15;;;2.78;;
25437;SDS011;13364;49.084;9.978;2023-04-03T01:07:16;4.65;;;3.25;;
25437;SDS011;13364;49.084;9.978;2023-04-03T01:09:55;4.70;;;2.88;;
25437;SDS011;13364;49.084;9.978;2023-04-03T01:12:26;4.05;;;2.58;;
25437;SDS011;13364;49.084;9.978;2023-04-03T01:14:59;4.78;;;2.72;;
25437;SDS011;13364;49.084;9.978;2023-04-03T01:23:10;4.20;;;2.95;;
25437;SDS011;13364;49.084;9.978;2023-04-03T01:25:52;2.80;;;2.50;;
25437;SDS011;13364;49.084;9.978;2023-04-03T01:30:56;3.72;;;2.67;;
25437;SDS011;13364;49.084;9.978;2023-04-03T01:33:26;3.05;;;2.60;;
25437;SDS011;13364;49.084;9.978;2023-04-03T01:35:53;3.03;;;2.60;;
25437;SDS011;13364;49.084;9.978;2023-04-03T01:38:21;3.58;;;2.78;;
25437;SDS011;13364;49.084;9.978;2023-04-03T01:40:48;3.15;;;2.65;;
25437;SDS011;13364;49.084;9.978;2023-04-03T01:43:16;2.58;;;2.38;;
25437;SDS011;13364;49.084;9.978;2023-04-03T01:45:43;3.70;;;2.60;;
25437;SDS011;13364;49.084;9.978;2023-04-03T01:48:10;2.97;;;2.42;;
25437;SDS011;13364;49.084;9.978;2023-04-03T01:50:37;3.08;;;2.60;;
25437;SDS011;13364;49.084;9.978;2023-04-03T01:53:05;3.75;;;2.95;;
25437;SDS011;13364;49.084;9.978;2023-04-03T01:55:32;3.47;;;2.78;;
25437;SDS011;13364;49.084;9.978;2023-04-03T01:57:59;3.20;;;2.30;;
25437;SDS011;13364;49.084;9.978;2023-04-03T02:00:26;4.50;;;3.03;;
25437;SDS011;13364;49.084;9.978;2023-04-03T02:02:53;3.88;;;2.55;;
25437;SDS011;13364;49.084;9.978;2023-04-03T02:05:21;5.13;;;2.33;;
25437;SDS011;13364;49.084;9.978;2023-04-03T02:07:48;5.00;;;2.55;;
25437;SDS011;13364;49.084;9.978;2023-04-03T02:10:15;5.70;;;3.08;;
25437;SDS011;13364;49.084;9.978;2023-04-03T02:12:42;4.20;;;2.20;;
25437;SDS011;13364;49.084;9.978;2023-04-03T02:15:09;3.50;;;2.92;;
25437;SDS011;13364;49.084;9.978;2023-04-03T02:17:36;3.85;;;2.85;;
25437;SDS011;13364;49.084;9.978;2023-04-03T02:20:04;4.43;;;3.03;;
25437;SDS011;13364;49.084;9.978;2023-04-03T02:22:32;3.10;;;2.45;;
25437;SDS011;13364;49.084;9.978;2023-04-03T02:24:59;6.47;;;4.25;;
25437;SDS011;13364;49.084;9.978;2023-04-03T02:27:27;3.90;;;3.50;;
25437;SDS011;13364;49.084;9.978;2023-04-03T02:29:54;3.70;;;2.95;;
25437;SDS011;13364;49.084;9.978;2023-04-03T02:32:21;5.93;;;3.65;;
25437;SDS011;13364;49.084;9.978;2023-04-03T02:34:49;5.45;;;3.70;;
25437;SDS011;13364;49.084;9.978;2023-04-03T02:37:16;3.10;;;2.80;;
25437;SDS011;13364;49.084;9.978;2023-04-03T02:39:45;4.28;;;2.88;;
25437;SDS011;13364;49.084;9.978;2023-04-03T02:42:12;4.57;;;3.28;;
25437;SDS011;13364;49.084;9.978;2023-04-03T02:44:40;5.32;;;2.92;;
25437;SDS011;13364;49.084;9.978;2023-04-03T02:47:08;4.28;;;3.75;;
25437;SDS011;13364;49.084;9.978;2023-04-03T02:49:35;3.78;;;3.20;;
25437;SDS011;13364;49.084;9.978;2023-04-03T02:52:03;6.28;;;2.95;;
25437;SDS011;13364;49.084;9.978;2023-04-03T02:54:30;3.95;;;2.78;;
25437;SDS011;13364;49.084;9.978;2023-04-03T02:57:01;4.35;;;2.85;;
25437;SDS011;13364;49.084;9.978;2023-04-03T02:59:28;2.58;;;2.38;;
25437;SDS011;13364;49.084;9.978;2023-04-03T03:01:55;4.25;;;3.63;;
25437;SDS011;13364;49.084;9.978;2023-04-03T03:04:23;4.68;;;3.15;;
25437;SDS011;13364;49.084;9.978;2023-04-03T03:06:50;5.35;;;3.40;;
25437;SDS011;13364;49.084;9.978;2023-04-03T03:09:17;4.30;;;3.28;;
25437;SDS011;13364;49.084;9.978;2023-04-03T03:11:44;4.97;;;3.42;;
25437;SDS011;13364;49.084;9.978;2023-04-03T03:14:11;5.60;;;3.67;;
25437;SDS011;13364;49.084;9.978;2023-04-03T03:16:38;4.20;;;3.08;;
25437;SDS011;13364;49.084;9.978;2023-04-03T03:19:05;6.38;;;3.28;;
25437;SDS011;13364;49.084;9.978;2023-04-03T03:21:33;6.03;;;4.07;;
25437;SDS011;13364;49.084;9.978;2023-04-03T03:24:00;6.75;;;4.05;;
25437;SDS011;13364;49.084;9.978;2023-04-03T03:26:28;6.40;;;3.67;;
25437;SDS011;13364;49.084;9.978;2023-04-03T03:28:55;5.90;;;4.13;;
25437;SDS011;13364;49.084;9.978;2023-04-03T03:31:22;5.32;;;3.53;;
25437;SDS011;13364;49.084;9.978;2023-04-03T03:33:49;7.70;;;3.67;;
25437;SDS011;13364;49.084;9.978;2023-04-03T03:36:16;4.47;;;3.13;;
25437;SDS011;13364;49.084;9.978;2023-04-03T03:38:43;3.60;;;3.00;;
25437;SDS011;13364;49.084;9.978;2023-04-03T03:41:10;3.78;;;2.78;;
25437;SDS011;13364;49.084;9.978;2023-04-03T03:43:38;4.65;;;2.78;;
25437;SDS011;13364;49.084;9.978;2023-04-03T03:46:06;4.57;;;2.85;;
25437;SDS011;13364;49.084;9.978;2023-04-03T03:48:33;4.90;;;2.83;;
25437;SDS011;13364;49.084;9.978;2023-04-03T03:51:00;4.63;;;3.17;;
25437;SDS011;13364;49.084;9.978;2023-04-03T03:53:31;3.65;;;2.63;;
25437;SDS011;13364;49.084;9.978;2023-04-03T03:56:03;3.50;;;2.65;;
25437;SDS011;13364;49.084;9.978;2023-04-03T03:58:31;3.60;;;3.05;;
25437;SDS011;13364;49.084;9.978;2023-04-03T04:01:05;5.60;;;2.88;;
25437;SDS011;13364;49.084;9.978;2023-04-03T04:06:07;4.82;;;2.78;;
25437;SDS011;13364;49.084;9.978;2023-04-03T04:08:34;4.53;;;2.88;;
25437;SDS011;13364;49.084;9.978;2023-04-03T04:11:04;3.88;;;3.47;;
25437;SDS011;13364;49.084;9.978;2023-04-03T04:13:31;5.78;;;3.00;;
25437;SDS011;13364;49.084;9.978;2023-04-03T04:15:59;5.22;;;2.90;;
25437;SDS011;13364;49.084;9.978;2023-04-03T04:18:26;5.68;;;3.38;;
25437;SDS011;13364;49.084;9.978;2023-04-03T04:20:53;5.20;;;3.47;;
25437;SDS011;13364;49.084;9.978;2023-04-03T04:23:21;5.35;;;3.03;;
25437;SDS011;13364;49.084;9.978;2023-04-03T04:25:49;5.88;;;3.67;;
25437;SDS011;13364;49.084;9.978;2023-04-03T04:28:18;6.63;;;3.60;;
25437;SDS011;13364;49.084;9.978;2023-04-03T04:33:16;5.17;;;3.30;;
25437;SDS011;13364;49.084;9.978;2023-04-03T04:35:43;4.93;;;3.35;;
25437;SDS011;13364;49.084;9.978;2023-04-03T04:38:13;3.80;;;3.40;;
25437;SDS011;13364;49.084;9.978;2023-04-03T04:40:40;4.43;;;2.95;;
25437;SDS011;13364;49.084;9.978;2023-04-03T04:43:08;3.83;;;3.20;;
25437;SDS011;13364;49.084;9.978;2023-04-03T04:45:35;4.78;;;3.08;;
25437;SDS011;13364;49.084;9.978;2023-04-03T04:48:02;5.97;;;3.20;;
25437;SDS011;13364;49.084;9.978;2023-04-03T04:50:30;3.58;;;2.90;;
25437;SDS011;13364;49.084;9.978;2023-04-03T04:52:57;5.07;;;3.50;;
25437;SDS011;13364;49.084;9.978;2023-04-03T04:55:24;3.85;;;2.83;;
25437;SDS011;13364;49.084;9.978;2023-04-03T04:57:51;5.72;;;3.25;;
25437;SDS011;13364;49.084;9.978;2023-04-03T05:00:19;3.53;;;1.95;;
25437;SDS011;13364;49.084;9.978;2023-04-03T05:02:47;4.75;;;3.25;;
25437;SDS011;13364;49.084;9.978;2023-04-03T05:05:15;6.20;;;3.25;;
25437;SDS011;13364;49.084;9.978;2023-04-03T05:07:42;4.10;;;2.70;;
25437;SDS011;13364;49.084;9.978;2023-04-03T05:10:09;3.70;;;3.10;;
25437;SDS011;13364;49.084;9.978;2023-04-03T05:12:37;5.43;;;3.22;;
25437;SDS011;13364;49.084;9.978;2023-04-03T05:15:04;5.78;;;3.20;;
25437;SDS011;13364;49.084;9.978;2023-04-03T05:17:32;3.70;;;3.13;;
25437;SDS011;13364;49.084;9.978;2023-04-03T05:20:01;6.80;;;3.05;;
25437;SDS011;13364;49.084;9.978;2023-04-03T05:22:29;3.15;;;2.22;;
25437;SDS011;13364;49.084;9.978;2023-04-03T05:25:02;7.70;;;3.40;;
25437;SDS011;13364;49.084;9.978;2023-04-03T05:27:30;8.63;;;4.50;;
25437;SDS011;13364;49.084;9.978;2023-04-03T05:29:58;5.28;;;3.90;;
25437;SDS011;13364;49.084;9.978;2023-04-03T05:32:26;5.35;;;3.90;;
25437;SDS011;13364;49.084;9.978;2023-04-03T05:35:10;5.72;;;3.05;;
25437;SDS011;13364;49.084;9.978;2023-04-03T05:37:39;7.00;;;4.45;;
25437;SDS011;13364;49.084;9.978;2023-04-03T05:40:07;6.30;;;4.13;;
25437;SDS011;13364;49.084;9.978;2023-04-03T05:42:38;3.70;;;2.85;;
25437;SDS011;13364;49.084;9.978;2023-04-03T05:45:06;5.15;;;3.67;;
25437;SDS011;13364;49.084;9.978;2023-04-03T05:47:33;5.75;;;3.40;;
25437;SDS011;13364;49.084;9.978;2023-04-03T05:50:02;4.68;;;3.20;;
25437;SDS011;13364;49.084;9.978;2023-04-03T05:52:30;4.82;;;3.30;;
25437;SDS011;13364;49.084;9.978;2023-04-03T05:55:01;6.25;;;3.70;;
25437;SDS011;13364;49.084;9.978;2023-04-03T05:57:32;4.43;;;3.10;;
25437;SDS011;13364;49.084;9.978;2023-04-03T06:00:00;4.65;;;3.65;;
25437;SDS011;13364;49.084;9.978;2023-04-03T06:02:28;3.03;;;2.13;;
25437;SDS011;13364;49.084;9.978;2023-04-03T06:04:56;4.88;;;3.60;;
25437;SDS011;13364;49.084;9.978;2023-04-03T06:07:24;6.40;;;3.38;;
25437;SDS011;13364;49.084;9.978;2023-04-03T06:09:55;5.25;;;3.30;;
25437;SDS011;13364;49.084;9.978;2023-04-03T06:12:23;6.10;;;3.78;;
25437;SDS011;13364;49.084;9.978;2023-04-03T06:14:51;4.00;;;3.22;;
25437;SDS011;13364;49.084;9.978;2023-04-03T06:17:18;6.88;;;3.42;;
25437;SDS011;13364;49.084;9.978;2023-04-03T06:19:46;7.75;;;4.03;;
25437;SDS011;13364;49.084;9.978;2023-04-03T06:22:14;9.27;;;4.40;;
25437;SDS011;13364;49.084;9.978;2023-04-03T06:24:42;6.28;;;3.90;;
25437;SDS011;13364;49.084;9.978;2023-04-03T06:27:10;4.88;;;3.70;;
25437;SDS011;13364;49.084;9.978;2023-04-03T06:29:37;5.68;;;3.55;;
25437;SDS011;13364;49.084;9.978;2023-04-03T06:32:04;5.82;;;3.40;;
25437;SDS011;13364;49.084;9.978;2023-04-03T06:34:32;10.10;;;3.90;;
25437;SDS011;13364;49.084;9.978;2023-04-03T06:36:59;7.22;;;3.30;;
25437;SDS011;13364;49.084;9.978;2023-04-03T06:39:27;5.07;;;3.63;;
25437;SDS011;13364;49.084;9.978;2023-04-03T06:41:54;5.20;;;3.55;;
25437;SDS011;13364;49.084;9.978;2023-04-03T06:44:29;5.75;;;3.70;;
25437;SDS011;13364;49.084;9.978;2023-04-03T06:46:56;6.68;;;4.18;;
25437;SDS011;13364;49.084;9.978;2023-04-03T06:49:23;6.82;;;4.22;;
25437;SDS011;13364;49.084;9.978;2023-04-03T06:51:50;6.40;;;3.95;;
25437;SDS011;13364;49.084;9.978;2023-04-03T06:54:18;4.78;;;3.67;;
25437;SDS011;13364;49.084;9.978;2023-04-03T06:56:45;4.50;;;3.40;;
25437;SDS011;13364;49.084;9.978;2023-04-03T06:59:12;4.72;;;4.10;;
25437;SDS011;13364;49.084;9.978;2023-04-03T07:01:41;7.18;;;4.05;;
25437;SDS011;13364;49.084;9.978;2023-04-03T07:04:08;6.25;;;3.80;;
25437;SDS011;13364;49.084;9.978;2023-04-03T07:06:35;5.90;;;4.25;;
25437;SDS011;13364;49.084;9.978;2023-04-03T07:09:02;6.47;;;3.72;;
25437;SDS011;13364;49.084;9.978;2023-04-03T07:11:29;8.27;;;4.22;;
25437;SDS011;13364;49.084;9.978;2023-04-03T07:16:57;6.95;;;3.70;;
25437;SDS011;13364;49.084;9.978;2023-04-03T07:19:24;6.57;;;4.10;;
25437;SDS011;13364;49.084;9.978;2023-04-03T07:21:54;7.57;;;3.42;;
25437;SDS011;13364;49.084;9.978;2023-04-03T07:24:21;5.57;;;3.33;;
25437;SDS011;13364;49.084;9.978;2023-04-03T07:26:49;3.38;;;2.40;;
25437;SDS011;13364;49.084;9.978;2023-04-03T07:29:18;5.57;;;3.30;;
25437;SDS011;13364;49.084;9.978;2023-04-03T07:31:46;5.53;;;3.90;;
25437;SDS011;13364;49.084;9.978;2023-04-03T07:34:14;7.00;;;3.95;;
25437;SDS011;13364;49.084;9.978;2023-04-03T07:36:41;6.40;;;4.20;;
25437;SDS011;13364;49.084;9.978;2023-04-03T07:39:08;6.90;;;3.67;;
25437;SDS011;13364;49.084;9.978;2023-04-03T07:41:35;7.20;;;3.38;;
25437;SDS011;13364;49.084;9.978;2023-04-03T07:44:02;8.15;;;3.80;;
25437;SDS011;13364;49.084;9.978;2023-04-03T07:46:29;2.80;;;2.50;;
25437;SDS011;13364;49.084;9.978;2023-04-03T07:48:56;4.28;;;3.40;;
25437;SDS011;13364;49.084;9.978;2023-04-03T07:51:24;3.50;;;3.20;;
25437;SDS011;13364;49.084;9.978;2023-04-03T07:53:53;4.03;;;3.47;;
25437;SDS011;13364;49.084;9.978;2023-04-03T07:56:20;6.65;;;3.08;;
25437;SDS011;13364;49.084;9.978;2023-04-03T07:58:49;6.38;;;3.75;;
25437;SDS011;13364;49.084;9.978;2023-04-03T08:01:16;7.75;;;3.30;;
25437;SDS011;13364;49.084;9.978;2023-04-03T08:03:43;7.45;;;4.20;;
25437;SDS011;13364;49.084;9.978;2023-04-03T08:06:10;6.18;;;3.08;;
25437;SDS011;13364;49.084;9.978;2023-04-03T08:08:42;5.13;;;3.03;;
25437;SDS011;13364;49.084;9.978;2023-04-03T08:11:09;5.65;;;2.90;;
25437;SDS011;13364;49.084;9.978;2023-04-03T08:13:37;7.93;;;3.35;;
25437;SDS011;13364;49.084;9.978;2023-04-03T08:16:11;6.50;;;2.75;;
25437;SDS011;13364;49.084;9.978;2023-04-03T08:18:42;4.88;;;2.88;;
25437;SDS011;13364;49.084;9.978;2023-04-03T08:21:09;4.88;;;2.70;;
25437;SDS011;13364;49.084;9.978;2023-04-03T08:23:38;5.10;;;3.17;;
25437;SDS011;13364;49.084;9.978;2023-04-03T08:26:11;4.20;;;2.67;;
25437;SDS011;13364;49.084;9.978;2023-04-03T08:28:39;5.10;;;3.20;;
25437;SDS011;13364;49.084;9.978;2023-04-03T08:31:08;3.63;;;2.28;;
25437;SDS011;13364;49.084;9.978;2023-04-03T08:33:38;5.45;;;2.92;;
25437;SDS011;13364;49.084;9.978;2023-04-03T08:36:06;5.10;;;3.08;;
25437;SDS011;13364;49.084;9.978;2023-04-03T08:38:42;7.15;;;3.40;;
25437;SDS011;13364;49.084;9.978;2023-04-03T08:41:25;4.60;;;2.92;;
25437;SDS011;13364;49.084;9.978;2023-04-03T08:49:31;5.22;;;2.97;;
25437;SDS011;13364;49.084;9.978;2023-04-03T08:52:04;7.15;;;3.22;;
25437;SDS011;13364;49.084;9.978;2023-04-03T08:54:52;6.43;;;3.83;;
25437;SDS011;13364;49.084;9.978;2023-04-03T08:57:34;3.83;;;2.53;;
25437;SDS011;13364;49.084;9.978;2023-04-03T09:00:14;6.15;;;2.92;;
25437;SDS011;13364;49.084;9.978;2023-04-03T09:02:48;7.03;;;2.42;;
25437;SDS011;13364;49.084;9.978;2023-04-03T09:10:47;3.67;;;2.70;;
25437;SDS011;13364;49.084;9.978;2023-04-03T09:13:33;3.72;;;2.63;;
25437;SDS011;13364;49.084;9.978;2023-04-03T09:16:14;6.90;;;3.10;;
25437;SDS011;13364;49.084;9.978;2023-04-03T09:18:57;7.55;;;2.88;;
25437;SDS011;13364;49.084;9.978;2023-04-03T09:21:39;8.18;;;2.85;;
25437;SDS011;13364;49.084;9.978;2023-04-03T09:24:14;3.40;;;2.55;;
25437;SDS011;13364;49.084;9.978;2023-04-03T09:26:56;3.95;;;2.47;;
25437;SDS011;13364;49.084;9.978;2023-04-03T09:29:28;6.10;;;2.97;;
25437;SDS011;13364;49.084;9.978;2023-04-03T09:31:57;5.35;;;2.47;;
25437;SDS011;13364;49.084;9.978;2023-04-03T09:34:31;5.13;;;2.58;;
25437;SDS011;13364;49.084;9.978;2023-04-03T09:37:03;5.15;;;3.10;;
25437;SDS011;13364;49.084;9.978;2023-04-03T09:39:51;4.50;;;2.50;;
25437;SDS011;13364;49.084;9.978;2023-04-03T09:42:21;4.60;;;2.95;;
25437;SDS011;13364;49.084;9.978;2023-04-03T09:44:57;5.75;;;2.50;;
25437;SDS011;13364;49.084;9.978;2023-04-03T09:52:41;3.58;;;2.50;;
25437;SDS011;13364;49.084;9.978;2023-04-03T09:57:53;2.50;;;2.00;;
25437;SDS011;13364;49.084;9.978;2023-04-03T10:00:26;3.90;;;2.33;;
25437;SDS011;13364;49.084;9.978;2023-04-03T10:02:58;3.30;;;2.97;;
25437;SDS011;13364;49.084;9.978;2023-04-03T10:10:36;4.20;;;2.65;;
25437;SDS011;13364;49.084;9.978;2023-04-03T10:13:06;4.22;;;2.58;;
25437;SDS011;13364;49.084;9.978;2023-04-03T10:27:21;5.57;;;2.33;;
25437;SDS011;13364;49.084;9.978;2023-04-03T10:35:40;4.25;;;2.10;;
25437;SDS011;13364;49.084;9.978;2023-04-03T10:38:31;2.03;;;1.75;;
25437;SDS011;13364;49.084;9.978;2023-04-03T10:41:31;3.67;;;2.17;;
25437;SDS011;13364;49.084;9.978;2023-04-03T10:44:41;7.45;;;3.10;;
25437;SDS011;13364;49.084;9.978;2023-04-03T10:47:26;4.22;;;1.95;;
25437;SDS011;13364;49.084;9.978;2023-04-03T10:53:14;2.97;;;1.98;;
25437;SDS011;13364;49.084;9.978;2023-04-03T10:58:36;3.55;;;2.05;;
25437;SDS011;13364;49.084;9.978;2023-04-03T11:04:29;2.50;;;2.10;;
25437;SDS011;13364;49.084;9.978;2023-04-03T11:09:40;3.50;;;2.50;;
25437;SDS011;13364;49.084;9.978;2023-04-03T11:12:13;2.83;;;2.15;;
25437;SDS011;13364;49.084;9.978;2023-04-03T11:21:54;3.25;;;2.10;;
25437;SDS011;13364;49.084;9.978;2023-04-03T11:24:27;2.78;;;1.67;;
25437;SDS011;13364;49.084;9.978;2023-04-03T11:26:58;4.68;;;2.00;;
25437;SDS011;13364;49.084;9.978;2023-04-03T11:29:31;2.35;;;1.77;;
25437;SDS011;13364;49.084;9.978;2023-04-03T11:32:26;3.92;;;2.20;;
25437;SDS011;13364;49.084;9.978;2023-04-03T11:34:56;4.03;;;2.15;;
25437;SDS011;13364;49.084;9.978;2023-04-03T11:43:07;4.05;;;2.63;;
25437;SDS011;13364;49.084;9.978;2023-04-03T11:46:04;4.65;;;2.47;;
25437;SDS011;13364;49.084;9.978;2023-04-03T11:53:39;3.45;;;1.60;;
25437;SDS011;13364;49.084;9.978;2023-04-03T12:01:47;4.90;;;2.20;;
25437;SDS011;13364;49.084;9.978;2023-04-03T12:04:20;2.05;;;1.38;;
25437;SDS011;13364;49.084;9.978;2023-04-03T12:11:57;4.20;;;2.00;;
25437;SDS011;13364;49.084;9.978;2023-04-03T12:14:28;2.65;;;2.22;;
25437;SDS011;13364;49.084;9.978;2023-04-03T12:16:56;4.95;;;2.10;;
25437;SDS011;13364;49.084;9.978;2023-04-03T12:22:09;7.57;;;2.15;;
25437;SDS011;13364;49.084;9.978;2023-04-03T12:24:43;4.07;;;2.53;;
25437;SDS011;13364;49.084;9.978;2023-04-03T12:27:17;5.90;;;2.03;;
25437;SDS011;13364;49.084;9.978;2023-04-03T12:30:21;3.42;;;1.67;;
25437;SDS011;13364;49.084;9.978;2023-04-03T12:46:23;3.22;;;1.90;;
25437;SDS011;13364;49.084;9.978;2023-04-03T12:48:57;2.95;;;2.05;;
25437;SDS011;13364;49.084;9.978;2023-04-03T12:51:37;3.90;;;1.88;;
25437;SDS011;13364;49.084;9.978;2023-04-03T12:54:49;8.20;;;2.50;;
25437;SDS011;13364;49.084;9.978;2023-04-03T12:57:21;5.80;;;2.20;;
25437;SDS011;13364;49.084;9.978;2023-04-03T12:59:54;3.28;;;2.20;;
25437;SDS011;13364;49.084;9.978;2023-04-03T13:04:57;3.13;;;2.10;;
25437;SDS011;13364;49.084;9.978;2023-04-03T13:10:02;8.43;;;2.40;;
25437;SDS011;13364;49.084;9.978;2023-04-03T13:12:50;3.78;;;2.30;;
25437;SDS011;13364;49.084;9.978;2023-04-03T13:15:23;4.55;;;2.03;;
25437;SDS011;13364;49.084;9.978;2023-04-03T13:17:55;3.35;;;2.33;;
25437;SDS011;13364;49.084;9.978;2023-04-03T13:20:24;5.82;;;2.10;;
25437;SDS011;13364;49.084;9.978;2023-04-03T13:23:02;5.03;;;2.00;;
25437;SDS011;13364;49.084;9.978;2023-04-03T13:25:35;3.10;;;2.10;;
25437;SDS011;13364;49.084;9.978;2023-04-03T13:36:34;2.67;;;1.98;;
25437;SDS011;13364;49.084;9.978;2023-04-03T13:39:20;3.08;;;1.95;;
25437;SDS011;13364;49.084;9.978;2023-04-03T13:41:51;3.28;;;1.88;;
25437;SDS011;13364;49.084;9.978;2023-04-03T13:44:39;4.50;;;2.47;;
25437;SDS011;13364;49.084;9.978;2023-04-03T13:47:24;11.60;;;6.10;;
25437;SDS011;13364;49.084;9.978;2023-04-03T13:50:03;6.72;;;4.40;;
25437;SDS011;13364;49.084;9.978;2023-04-03T13:52:49;7.18;;;4.07;;
25437;SDS011;13364;49.084;9.978;2023-04-03T13:55:35;8.25;;;5.00;;
25437;SDS011;13364;49.084;9.978;2023-04-03T13:58:27;4.68;;;2.78;;
25437;SDS011;13364;49.084;9.978;2023-04-03T14:06:38;4.05;;;2.25;;
25437;SDS011;13364;49.084;9.978;2023-04-03T14:09:05;2.75;;;2.15;;
25437;SDS011;13364;49.084;9.978;2023-04-03T14:11:32;4.35;;;2.03;;
25437;SDS011;13364;49.084;9.978;2023-04-03T14:14:02;3.80;;;2.10;;
25437;SDS011;13364;49.084;9.978;2023-04-03T14:16:37;2.25;;;1.85;;
25437;SDS011;13364;49.084;9.978;2023-04-03T14:19:09;3.42;;;1.67;;
25437;SDS011;13364;49.084;9.978;2023-04-03T14:22:05;4.28;;;1.95;;
25437;SDS011;13364;49.084;9.978;2023-04-03T14:24:54;3.50;;;2.13;;
25437;SDS011;13364;49.084;9.978;2023-04-03T14:27:23;3.05;;;2.00;;
25437;SDS011;13364;49.084;9.978;2023-04-03T14:29:54;3.63;;;2.35;;
25437;SDS011;13364;49.084;9.978;2023-04-03T14:34:57;5.25;;;2.53;;
25437;SDS011;13364;49.084;9.978;2023-04-03T14:37:26;3.85;;;1.98;;
25437;SDS011;13364;49.084;9.978;2023-04-03T14:43:12;2.95;;;2.13;;
25437;SDS011;13364;49.084;9.978;2023-04-03T14:45:39;2.20;;;2.00;;
25437;SDS011;13364;49.084;9.978;2023-04-03T14:48:09;3.42;;;2.00;;
25437;SDS011;13364;49.084;9.978;2023-04-03T14:50:42;2.92;;;2.10;;
25437;SDS011;13364;49.084;9.978;2023-04-03T14:53:32;4.65;;;2.33;;
25437;SDS011;13364;49.084;9.978;2023-04-03T14:56:04;7.53;;;3.08;;
25437;SDS011;13364;49.084;9.978;2023-04-03T14:58:37;13.00;;;5.72;;
25437;SDS011;13364;49.084;9.978;2023-04-03T15:01:05;6.68;;;3.65;;
25437;SDS011;13364;49.084;9.978;2023-04-03T15:03:33;4.55;;;2.80;;
25437;SDS011;13364;49.084;9.978;2023-04-03T15:06:00;3.13;;;2.15;;
25437;SDS011;13364;49.084;9.978;2023-04-03T15:08:27;2.95;;;2.00;;
25437;SDS011;13364;49.084;9.978;2023-04-03T15:10:57;2.88;;;1.77;;
25437;SDS011;13364;49.084;9.978;2023-04-03T15:13:24;5.97;;;3.00;;
25437;SDS011;13364;49.084;9.978;2023-04-03T15:19:23;3.55;;;2.08;;
25437;SDS011;13364;49.084;9.978;2023-04-03T15:21:50;3.97;;;2.10;;
25437;SDS011;13364;49.084;9.978;2023-04-03T15:24:17;2.83;;;1.98;;
25437;SDS011;13364;49.084;9.978;2023-04-03T15:26:44;5.95;;;2.90;;
25437;SDS011;13364;49.084;9.978;2023-04-03T15:29:11;6.45;;;2.60;;
25437;SDS011;13364;49.084;9.978;2023-04-03T15:31:38;4.03;;;2.45;;
25437;SDS011;13364;49.084;9.978;2023-04-03T15:34:06;2.78;;;2.40;;
25437;SDS011;13364;49.084;9.978;2023-04-03T15:36:33;6.18;;;3.13;;
25437;SDS011;13364;49.084;9.978;2023-04-03T15:39:00;4.32;;;2.60;;
25437;SDS011;13364;49.084;9.978;2023-04-03T15:41:27;6.82;;;2.50;;
25437;SDS011;13364;49.084;9.978;2023-04-03T15:43:54;5.05;;;2.58;;
25437;SDS011;13364;49.084;9.978;2023-04-03T15:46:21;3.35;;;2.15;;
25437;SDS011;13364;49.084;9.978;2023-04-03T15:48:49;2.50;;;2.05;;
25437;SDS011;13364;49.084;9.978;2023-04-03T15:51:16;2.63;;;2.00;;
25437;SDS011;13364;49.084;9.978;2023-04-03T15:53:43;4.53;;;2.63;;
25437;SDS011;13364;49.084;9.978;2023-04-03T15:56:10;2.30;;;2.08;;
25437;SDS011;13364;49.084;9.978;2023-04-03T15:58:38;3.38;;;2.38;;
25437;SDS011;13364;49.084;9.978;2023-04-03T16:01:05;4.65;;;2.50;;
25437;SDS011;13364;49.084;9.978;2023-04-03T16:03:32;3.97;;;2.38;;
25437;SDS011;13364;49.084;9.978;2023-04-03T16:06:00;4.50;;;2.20;;
25437;SDS011;13364;49.084;9.978;2023-04-03T16:08:27;2.53;;;1.92;;
25437;SDS011;13364;49.084;9.978;2023-04-03T16:10:54;4.60;;;2.30;;
25437;SDS011;13364;49.084;9.978;2023-04-03T16:13:21;3.80;;;2.00;;
25437;SDS011;13364;49.084;9.978;2023-04-03T16:15:48;4.25;;;2.20;;
25437;SDS011;13364;49.084;9.978;2023-04-03T16:18:16;4.25;;;2.78;;
25437;SDS011;13364;49.084;9.978;2023-04-03T16:20:44;4.50;;;1.90;;
25437;SDS011;13364;49.084;9.978;2023-04-03T16:23:12;3.05;;;2.35;;
25437;SDS011;13364;49.084;9.978;2023-04-03T16:25:39;2.60;;;1.92;;
25437;SDS011;13364;49.084;9.978;2023-04-03T16:28:06;2.90;;;1.40;;
25437;SDS011;13364;49.084;9.978;2023-04-03T16:30:33;3.58;;;2.38;;
25437;SDS011;13364;49.084;9.978;2023-04-03T16:33:01;3.92;;;2.05;;
25437;SDS011;13364;49.084;9.978;2023-04-03T16:35:28;4.22;;;2.00;;
25437;SDS011;13364;49.084;9.978;2023-04-03T16:37:56;4.05;;;2.33;;
25437;SDS011;13364;49.084;9.978;2023-04-03T16:40:23;2.63;;;2.05;;
25437;SDS011;13364;49.084;9.978;2023-04-03T16:42:50;2.58;;;1.48;;
25437;SDS011;13364;49.084;9.978;2023-04-03T16:45:17;2.85;;;2.25;;
25437;SDS011;13364;49.084;9.978;2023-04-03T16:47:44;5.18;;;2.67;;
25437;SDS011;13364;49.084;9.978;2023-04-03T16:53:10;6.50;;;2.53;;
25437;SDS011;13364;49.084;9.978;2023-04-03T16:55:37;2.97;;;2.63;;
25437;SDS011;13364;49.084;9.978;2023-04-03T16:58:05;4.93;;;2.65;;
25437;SDS011;13364;49.084;9.978;2023-04-03T17:00:33;3.55;;;2.50;;
25437;SDS011;13364;49.084;9.978;2023-04-03T17:03:00;4.25;;;3.10;;
25437;SDS011;13364;49.084;9.978;2023-04-03T17:05:27;5.75;;;3.15;;
25437;SDS011;13364;49.084;9.978;2023-04-03T17:07:54;2.38;;;1.85;;
25437;SDS011;13364;49.084;9.978;2023-04-03T17:10:21;2.78;;;2.08;;
25437;SDS011;13364;49.084;9.978;2023-04-03T17:12:48;2.65;;;2.13;;
25437;SDS011;13364;49.084;9.978;2023-04-03T17:15:15;3.13;;;2.28;;
25437;SDS011;13364;49.084;9.978;2023-04-03T17:17:42;5.95;;;1.70;;
25437;SDS011;13364;49.084;9.978;2023-04-03T17:20:10;3.22;;;2.33;;
25437;SDS011;13364;49.084;9.978;2023-04-03T17:22:37;4.60;;;2.20;;
25437;SDS011;13364;49.084;9.978;2023-04-03T17:25:04;2.33;;;1.92;;
25437;SDS011;13364;49.084;9.978;2023-04-03T17:27:32;3.92;;;2.30;;
25437;SDS011;13364;49.084;9.978;2023-04-03T17:29:59;2.13;;;1.80;;
25437;SDS011;13364;49.084;9.978;2023-04-03T17:32:26;4.78;;;2.47;;
25437;SDS011;13364;49.084;9.978;2023-04-03T17:34:53;2.83;;;2.00;;